Time;durP1;ratioP1;P1;durP2;ratioP2;P2;SDS_P1;SDS_P2;PMS_P1;PMS_P2;Temp;Humidity;BMP_temperature;BMP_pressure;BME280_temperature;BME280_humidity;BME280_pressure;Samples;Min_cycle;Max_cycle;Signal;HPM_P1;HPM_P2
2022/10/02 00:06:51;;;;;;;1.30;0.90;;;12.20;99.90;;;;;;21142568;28;20032;-51
2022/10/02 00:16:59;;;;;;;3.10;1.58;;;11.30;99.90;;;;;;21125555;28;20044;-51
2022/10/02 00:27:29;;;;;;;4.40;2.63;;;10.30;99.90;;;;;;21136693;28;20039;-51
2022/10/02 00:37:48;;;;;;;4.13;3.17;;;9.30;99.90;;;;;;21140847;28;20040;-51
2022/10/02 00:48:22;;;;;;;2.27;1.70;;;9.30;99.90;;;;;;21124006;28;20467;-52
2022/10/02 00:58:45;;;;;;;2.08;1.48;;;9.10;99.90;;;;;;21150185;28;20035;-53
2022/10/02 01:08:50;;;;;;;2.75;2.10;;;9.00;99.90;;;;;;21156091;28;20027;-50
2022/10/02 01:18:53;;;;;;;3.88;2.13;;;8.60;99.90;;;;;;21138463;28;20032;-49
2022/10/02 01:28:59;;;;;;;2.70;2.03;;;8.40;99.90;;;;;;21068567;28;20443;-49
2022/10/02 01:39:02;;;;;;;4.13;1.42;;;8.50;99.90;;;;;;21108504;28;20044;-53
2022/10/02 01:49:17;;;;;;;2.03;1.15;;;8.20;99.90;;;;;;21099570;28;20102;-52
2022/10/02 01:59:23;;;;;;;1.27;0.50;;;8.00;99.90;;;;;;21152492;28;20061;-50
2022/10/02 02:09:41;;;;;;;0.20;0.10;;;8.80;99.90;;;;;;21134376;28;20473;-51
2022/10/02 02:20:17;;;;;;;0.30;0.10;;;9.40;99.90;;;;;;21133607;28;20031;-52
2022/10/02 02:30:24;;;;;;;0.00;0.00;;;11.00;99.90;;;;;;21133332;28;20027;-52
2022/10/02 02:40:30;;;;;;;0.65;0.00;;;11.60;99.90;;;;;;21148534;28;20100;-51
2022/10/02 02:50:37;;;;;;;1.38;0.00;;;11.30;99.90;;;;;;21147900;28;20424;-56
2022/10/02 03:00:40;;;;;;;0.25;0.00;;;11.80;99.90;;;;;;21147401;28;20032;-51
2022/10/02 03:11:29;;;;;;;0.00;0.00;;;12.80;99.90;;;;;;21129456;28;20115;-53
2022/10/02 03:21:48;;;;;;;0.00;0.00;;;13.60;99.90;;;;;;20804240;28;20046;-50
2022/10/02 03:31:53;;;;;;;1.60;0.00;;;13.50;99.90;;;;;;20804480;28;20055;-52
2022/10/02 03:41:55;;;;;;;0.30;0.10;;;13.60;99.90;;;;;;20809972;28;20053;-51
2022/10/02 03:51:58;;;;;;;0.47;0.00;;;13.50;99.90;;;;;;21044310;28;20048;-59
2022/10/02 04:02:05;;;;;;;0.22;0.00;;;12.90;99.90;;;;;;21142960;28;20035;-53
2022/10/02 04:12:26;;;;;;;1.17;0.10;;;13.30;99.90;;;;;;21142189;28;20081;-51
2022/10/02 04:23:05;;;;;;;0.00;0.00;;;13.00;99.90;;;;;;21142618;28;20036;-51
2022/10/02 04:33:15;;;;;;;0.20;0.20;;;11.80;99.90;;;;;;21151152;28;20109;-52
2022/10/02 04:43:20;;;;;;;0.00;0.00;;;11.40;99.90;;;;;;21158809;28;20104;-52
2022/10/02 04:53:54;;;;;;;0.10;0.10;;;12.40;99.90;;;;;;21157517;28;20036;-58
2022/10/02 05:04:22;;;;;;;1.35;0.20;;;11.90;99.90;;;;;;21156554;28;20035;-54
2022/10/02 05:15:10;;;;;;;0.30;0.10;;;11.10;99.90;;;;;;21156061;28;20084;-49
2022/10/02 05:25:44;;;;;;;0.65;0.10;;;10.80;99.90;;;;;;21135854;28;20089;-50
2022/10/02 05:36:01;;;;;;;0.08;0.08;;;10.30;99.90;;;;;;21150683;28;20088;-50
2022/10/02 05:46:29;;;;;;;0.08;0.05;;;9.90;99.90;;;;;;21153088;28;20065;-53
2022/10/02 05:56:43;;;;;;;0.00;0.00;;;9.60;99.90;;;;;;21135757;28;20036;-49
2022/10/02 06:06:53;;;;;;;0.10;0.00;;;9.80;99.90;;;;;;21151630;28;20039;-50
2022/10/02 06:17:18;;;;;;;1.07;0.10;;;9.90;99.90;;;;;;21134699;28;20168;-52
2022/10/02 06:27:32;;;;;;;0.40;0.00;;;9.70;99.90;;;;;;21132973;28;20293;-51
2022/10/02 06:37:45;;;;;;;0.10;0.00;;;9.50;99.90;;;;;;21148902;28;20105;-53
2022/10/02 06:48:18;;;;;;;0.47;0.10;;;9.80;99.90;;;;;;21147949;28;20032;-52
2022/10/02 06:58:46;;;;;;;0.10;0.10;;;9.90;99.90;;;;;;21146194;28;20396;-54
2022/10/02 07:09:32;;;;;;;1.50;0.20;;;10.10;99.90;;;;;;21146159;28;20028;-51
2022/10/02 07:19:56;;;;;;;0.50;0.20;;;11.00;99.90;;;;;;21145265;28;20047;-51
2022/10/02 07:30:14;;;;;;;0.47;0.20;;;11.50;99.90;;;;;;21145017;28;20081;-50
2022/10/02 07:40:38;;;;;;;0.52;0.20;;;12.20;99.90;;;;;;21143840;28;20047;-51
2022/10/02 08:01:40;;;;;;;0.88;0.30;;;13.30;99.90;;;;;;21143184;28;20047;-49
2022/10/02 08:12:09;;;;;;;1.05;0.68;;;14.30;99.90;;;;;;21141894;28;20081;-50
2022/10/02 08:22:25;;;;;;;3.47;2.47;;;15.30;99.90;;;;;;21138883;28;20043;-59
2022/10/02 08:32:42;;;;;;;3.53;1.83;;;15.70;99.90;;;;;;21126668;28;20084;-53
2022/10/02 08:43:09;;;;;;;5.00;2.70;;;15.60;99.90;;;;;;21140834;28;20504;-54
2022/10/02 08:53:31;;;;;;;3.22;2.42;;;16.00;99.90;;;;;;21123819;28;20031;-48
2022/10/02 09:03:59;;;;;;;4.57;3.33;;;16.30;99.90;;;;;;21139360;28;20438;-54
2022/10/02 09:14:10;;;;;;;4.38;3.75;;;16.70;99.90;;;;;;21123740;28;20031;-52
2022/10/02 09:24:56;;;;;;;6.03;4.00;;;16.30;99.90;;;;;;21154353;28;20027;-50
2022/10/02 09:35:08;;;;;;;6.28;4.40;;;16.90;99.90;;;;;;21146822;28;20427;-50
2022/10/02 09:45:27;;;;;;;5.53;4.03;;;17.40;99.90;;;;;;21153663;28;20032;-50
2022/10/02 09:55:48;;;;;;;;;;;17.80;99.90;;;;;;21135963;28;20027;-51
2022/10/02 10:06:42;;;;;;;6.25;4.95;;;18.10;99.90;;;;;;21134868;28;19912;-53
2022/10/02 10:17:08;;;;;;;5.57;4.53;;;18.90;99.90;;;;;;20811611;28;20076;-54
2022/10/02 10:27:41;;;;;;;5.95;4.90;;;18.80;99.90;;;;;;20889603;28;20413;-53
2022/10/02 10:48:43;;;;;;;;;;;19.10;99.90;;;;;;21015903;28;20110;-51
2022/10/02 10:59:33;;;;;;;6.88;5.82;;;19.10;99.90;;;;;;21147818;28;20350;-50
2022/10/02 11:10:07;;;;;;;9.00;5.63;;;19.20;99.90;;;;;;21146273;28;20104;-61
2022/10/02 11:20:35;;;;;;;6.28;5.60;;;19.10;99.90;;;;;;21145455;28;20092;-52
2022/10/02 11:30:56;;;;;;;7.60;6.65;;;19.50;99.90;;;;;;21144920;28;20031;-55
2022/10/02 11:41:19;;;;;;;8.50;6.57;;;19.70;99.90;;;;;;21142966;28;20091;-52
2022/10/02 11:51:35;;;;;;;10.32;7.25;;;19.70;99.90;;;;;;21091191;28;20065;-51
2022/10/02 12:01:51;;;;;;;6.57;5.95;;;19.70;99.90;;;;;;21142801;28;20410;-53
2022/10/02 12:12:29;;;;;;;7.57;6.70;;;19.60;99.90;;;;;;21141304;28;20450;-62
2022/10/02 12:33:48;;;;;;;9.80;7.65;;;20.00;99.90;;;;;;20881646;28;20110;-54
2022/10/02 12:44:15;;;;;;;11.40;8.88;;;19.60;99.90;;;;;;20882434;28;20041;-62
2022/10/02 12:55:00;;;;;;;11.20;9.60;;;19.50;99.90;;;;;;20993128;28;20369;-51
2022/10/02 13:05:33;;;;;;;11.73;9.45;;;19.10;99.90;;;;;;20815706;28;20045;-63
2022/10/02 13:15:56;;;;;;;10.82;9.57;;;18.50;99.90;;;;;;20831562;28;20185;-62
2022/10/02 13:26:05;;;;;;;12.82;9.85;;;18.70;99.90;;;;;;20797534;28;20112;-53
2022/10/02 13:36:19;;;;;;;11.00;8.60;;;17.90;99.90;;;;;;21132682;28;20043;-61
2022/10/02 13:46:34;;;;;;;10.25;8.48;;;17.20;99.90;;;;;;21136728;28;20088;-60
2022/10/02 13:57:03;;;;;;;11.40;8.30;;;16.90;99.90;;;;;;21152465;28;20035;-55
2022/10/02 14:07:21;;;;;;;10.73;8.10;;;16.20;99.90;;;;;;21150914;28;20039;-59
2022/10/02 14:17:43;;;;;;;10.07;8.43;;;15.80;99.90;;;;;;21151163;28;20092;-52
2022/10/02 14:28:06;;;;;;;9.85;8.10;;;15.40;99.90;;;;;;21065563;28;20035;-52
2022/10/02 14:38:21;;;;;;;11.23;7.80;;;15.30;99.90;;;;;;21130068;28;20043;-59
2022/10/02 14:48:39;;;;;;;9.48;7.60;;;15.00;99.90;;;;;;21147977;28;20480;-51
2022/10/02 14:59:11;;;;;;;9.30;5.45;;;14.60;99.90;;;;;;21147881;28;20092;-55
2022/10/02 15:09:36;;;;;;;0.82;0.40;;;14.60;99.90;;;;;;21146422;28;20066;-59
2022/10/02 15:20:03;;;;;;;0.35;0.20;;;14.80;99.90;;;;;;21144706;28;20027;-59
2022/10/02 15:30:19;;;;;;;1.33;0.40;;;14.90;99.90;;;;;;21145708;28;20505;-50
2022/10/02 15:40:46;;;;;;;0.55;0.10;;;14.90;99.90;;;;;;21144652;28;20386;-59
2022/10/02 15:51:06;;;;;;;2.60;0.40;;;14.30;99.90;;;;;;21090549;28;20039;-59
2022/10/02 16:01:56;;;;;;;2.55;0.40;;;14.30;99.90;;;;;;21142990;28;20027;-52
2022/10/02 16:12:30;;;;;;;0.57;0.00;;;13.60;99.90;;;;;;20801305;28;20045;-51
2022/10/02 16:22:51;;;;;;;0.05;0.00;;;14.30;99.90;;;;;;20478648;28;20639;-52
2022/10/02 16:33:22;;;;;;;1.65;0.10;;;14.70;99.90;;;;;;20478485;29;20051;-51
2022/10/02 16:44:01;;;;;;;0.10;0.05;;;14.90;99.90;;;;;;20701407;28;20408;-49
2022/10/02 16:54:37;;;;;;;0.20;0.00;;;14.60;99.90;;;;;;20884030;28;20049;-52
2022/10/02 17:04:54;;;;;;;0.00;0.00;;;14.60;99.90;;;;;;21009589;28;20039;-52
2022/10/02 17:15:17;;;;;;;0.00;0.00;;;14.70;99.90;;;;;;21140010;28;20040;-50
2022/10/02 17:25:28;;;;;;;0.08;0.08;;;14.30;99.90;;;;;;21122439;28;20032;-59
2022/10/02 17:35:52;;;;;;;0.82;0.13;;;14.10;99.90;;;;;;21140448;27;20051;-59
2022/10/02 17:46:20;;;;;;;1.77;0.03;;;13.70;99.90;;;;;;21113410;28;20040;-48
2022/10/02 17:56:48;;;;;;;4.68;2.65;;;13.20;99.90;;;;;;21144444;28;20065;-59
2022/10/02 18:07:21;;;;;;;2.03;0.60;;;13.50;99.90;;;;;;21152153;28;20035;-53
2022/10/02 18:17:59;;;;;;;15.32;10.45;;;12.70;99.90;;;;;;21144242;28;20136;-53
2022/10/02 18:28:34;;;;;;;17.63;8.80;;;11.80;99.90;;;;;;20978049;28;20374;-52
2022/10/02 18:38:43;;;;;;;3.33;1.38;;;11.00;99.90;;;;;;20689856;28;20050;-52
2022/10/02 18:49:17;;;;;;;25.95;17.95;;;10.60;99.90;;;;;;20725093;28;20073;-53
2022/10/02 18:59:55;;;;;;;29.58;19.42;;;11.10;99.90;;;;;;20725822;28;20522;-59
2022/10/02 19:10:27;;;;;;;35.33;20.38;;;11.20;99.90;;;;;;20664198;28;20552;-57
2022/10/02 19:20:44;;;;;;;25.70;17.02;;;10.60;99.90;;;;;;20887035;28;20103;-58
2022/10/02 19:30:53;;;;;;;30.58;19.17;;;10.20;99.90;;;;;;20870850;28;20110;-52
2022/10/02 19:41:01;;;;;;;31.95;21.42;;;9.70;99.90;;;;;;20947993;28;20052;-58
2022/10/02 19:51:15;;;;;;;38.30;19.17;;;9.60;99.90;;;;;;21112478;28;20101;-52
2022/10/02 20:01:46;;;;;;;16.55;10.15;;;9.50;99.90;;;;;;21042665;28;20054;-52
2022/10/02 20:11:52;;;;;;;;;;;9.20;99.90;;;;;;21058800;28;20032;-52
2022/10/02 20:22:01;;;;;;;17.08;11.05;;;9.00;99.90;;;;;;21057718;28;19912;-58
2022/10/02 20:32:30;;;;;;;34.50;21.52;;;8.90;99.90;;;;;;21041480;28;20074;-52
2022/10/02 20:42:49;;;;;;;26.88;16.83;;;8.90;99.90;;;;;;21057281;28;20048;-54
2022/10/02 20:53:01;;;;;;;28.92;18.33;;;8.90;99.90;;;;;;21040177;28;20028;-52
2022/10/02 21:03:52;;;;;;;34.00;17.48;;;8.80;99.90;;;;;;21125207;28;20110;-51
2022/10/02 21:13:57;;;;;;;22.67;13.45;;;8.70;99.90;;;;;;20725076;28;20053;-59
2022/10/02 21:24:02;;;;;;;9.50;6.40;;;8.80;99.90;;;;;;20732932;28;20148;-51
2022/10/02 21:34:22;;;;;;;7.38;5.35;;;9.40;99.90;;;;;;20727159;28;20102;-50
2022/10/02 21:44:49;;;;;;;13.67;7.43;;;9.70;99.90;;;;;;20949582;28;20126;-52
2022/10/02 21:55:07;;;;;;;13.20;9.30;;;9.30;99.90;;;;;;21050976;28;20446;-51
2022/10/02 22:05:37;;;;;;;10.70;5.90;;;9.00;99.90;;;;;;21051689;28;20065;-53
2022/10/02 22:15:49;;;;;;;8.55;6.13;;;8.80;99.90;;;;;;21084573;28;20040;-52
2022/10/02 22:26:17;;;;;;;22.38;13.80;;;9.00;99.90;;;;;;21066532;28;20062;-48
2022/10/02 22:36:22;;;;;;;36.35;22.38;;;9.00;99.90;;;;;;21065523;27;20196;-59
2022/10/02 22:46:52;;;;;;;44.42;27.80;;;9.20;99.90;;;;;;21065153;28;20093;-52
2022/10/02 22:57:02;;;;;;;59.85;36.75;;;9.60;99.90;;;;;;21063849;28;20036;-58
2022/10/02 23:07:16;;;;;;;41.75;27.08;;;9.50;99.90;;;;;;21046690;28;20090;-52
2022/10/02 23:17:44;;;;;;;11.00;6.32;;;9.20;99.90;;;;;;21062933;28;20086;-49
2022/10/02 23:27:57;;;;;;;0.30;0.20;;;8.70;99.90;;;;;;20978356;28;20044;-53
2022/10/02 23:38:23;;;;;;;1.67;0.47;;;8.60;99.90;;;;;;21007185;28;20052;-52
2022/10/02 23:48:27;;;;;;;6.13;4.22;;;8.60;99.90;;;;;;21059344;28;20036;-51
2022/10/02 23:58:55;;;;;;;4.95;3.70;;;8.40;99.90;;;;;;21061012;28;20065;-50
